sensor_id;sensor_type;location;lat;lon;timestamp;pressure;altitude;pressure_sealevel;temperature;humidity
42601;BME280;28229;48.856;9.088;2023-05-23T00:01:38;97769.63;;;16.53;100.00
42601;BME280;28229;48.856;9.088;2023-05-23T00:04:05;97768.84;;;16.52;100.00
42601;BME280;28229;48.856;9.088;2023-05-23T00:06:31;97763.25;;;16.49;100.00
42601;BME280;28229;48.856;9.088;2023-05-23T00:08:59;97773.88;;;16.49;100.00
42601;BME280;28229;48.856;9.088;2023-05-23T00:11:25;97765.88;;;16.44;100.00
42601;BME280;28229;48.856;9.088;2023-05-23T00:13:52;97768.56;;;16.49;100.00
42601;BME280;28229;48.856;9.088;2023-05-23T00:16:18;97768.00;;;16.42;100.00
42601;BME280;28229;48.856;9.088;2023-05-23T00:18:44;97768.00;;;16.42;100.00
42601;BME280;28229;48.856;9.088;2023-05-23T00:21:11;97766.16;;;16.47;100.00
42601;BME280;28229;48.856;9.088;2023-05-23T00:23:38;97770.16;;;16.50;100.00
42601;BME280;28229;48.856;9.088;2023-05-23T00:26:11;97784.22;;;16.45;100.00
42601;BME280;28229;48.856;9.088;2023-05-23T00:28:41;97772.78;;;16.45;100.00
42601;BME280;28229;48.856;9.088;2023-05-23T00:31:07;97775.19;;;16.46;100.00
42601;BME280;28229;48.856;9.088;2023-05-23T00:33:33;97775.47;;;16.50;100.00
42601;BME280;28229;48.856;9.088;2023-05-23T00:36:01;97773.88;;;16.49;100.00
42601;BME280;28229;48.856;9.088;2023-05-23T00:38:27;97783.97;;;16.52;100.00
42601;BME280;28229;48.856;9.088;2023-05-23T00:40:54;97781.28;;;16.47;100.00
42601;BME280;28229;48.856;9.088;2023-05-23T00:43:20;97786.59;;;16.47;100.00
42601;BME280;28229;48.856;9.088;2023-05-23T00:45:47;97783.69;;;16.48;100.00
42601;BME280;28229;48.856;9.088;2023-05-23T00:48:14;97794.59;;;16.52;100.00
42601;BME280;28229;48.856;9.088;2023-05-23T00:50:41;97791.41;;;16.50;100.00
42601;BME280;28229;48.856;9.088;2023-05-23T00:53:08;97795.41;;;16.52;100.00
42601;BME280;28229;48.856;9.088;2023-05-23T00:55:34;97802.56;;;16.52;100.00
42601;BME280;28229;48.856;9.088;2023-05-23T00:58:00;97795.69;;;16.56;100.00
42601;BME280;28229;48.856;9.088;2023-05-23T01:00:27;97797.25;;;16.57;100.00
42601;BME280;28229;48.856;9.088;2023-05-23T01:02:53;97799.38;;;16.55;100.00
42601;BME280;28229;48.856;9.088;2023-05-23T01:05:20;97802.03;;;16.55;100.00
42601;BME280;28229;48.856;9.088;2023-05-23T01:07:50;97801.00;;;16.56;100.00
42601;BME280;28229;48.856;9.088;2023-05-23T01:10:22;97799.38;;;16.55;100.00
42601;BME280;28229;48.856;9.088;2023-05-23T01:19:05;97794.88;;;16.55;100.00
42601;BME280;28229;48.856;9.088;2023-05-23T01:21:39;97796.69;;;16.50;100.00
42601;BME280;28229;48.856;9.088;2023-05-23T01:24:29;97794.59;;;16.52;100.00
42601;BME280;28229;48.856;9.088;2023-05-23T01:27:22;97791.13;;;16.46;100.00
42601;BME280;28229;48.856;9.088;2023-05-23T01:29:53;97797.50;;;16.45;100.00
42601;BME280;28229;48.856;9.088;2023-05-23T01:32:24;97799.34;;;16.45;100.00
42601;BME280;28229;48.856;9.088;2023-05-23T01:34:52;97801.44;;;16.43;100.00
42601;BME280;28229;48.856;9.088;2023-05-23T01:37:18;97801.97;;;16.45;100.00
42601;BME280;28229;48.856;9.088;2023-05-23T01:39:45;97799.88;;;16.42;100.00
42601;BME280;28229;48.856;9.088;2023-05-23T01:42:12;97802.22;;;16.38;100.00
42601;BME280;28229;48.856;9.088;2023-05-23T01:44:38;97796.66;;;16.40;100.00
42601;BME280;28229;48.856;9.088;2023-05-23T01:47:07;97796.66;;;16.40;100.00
42601;BME280;28229;48.856;9.088;2023-05-23T01:49:34;97803.56;;;16.41;100.00
42601;BME280;28229;48.856;9.088;2023-05-23T01:52:03;97805.97;;;16.42;100.00
42601;BME280;28229;48.856;9.088;2023-05-23T01:54:31;97802.50;;;16.36;100.00
42601;BME280;28229;48.856;9.088;2023-05-23T01:57:00;97808.31;;;16.33;100.00
42601;BME280;28229;48.856;9.088;2023-05-23T01:59:26;97808.31;;;16.33;100.00
42601;BME280;28229;48.856;9.088;2023-05-23T02:01:53;97806.19;;;16.35;100.00
42601;BME280;28229;48.856;9.088;2023-05-23T02:04:20;97798.19;;;16.30;100.00
42601;BME280;28229;48.856;9.088;2023-05-23T02:06:46;97800.59;;;16.32;100.00
42601;BME280;28229;48.856;9.088;2023-05-23T02:09:13;97802.44;;;16.26;100.00
42601;BME280;28229;48.856;9.088;2023-05-23T02:11:39;97800.31;;;16.28;100.00
42601;BME280;28229;48.856;9.088;2023-05-23T02:14:06;97808.03;;;16.30;100.00
42601;BME280;28229;48.856;9.088;2023-05-23T02:16:32;97801.34;;;16.27;100.00
42601;BME280;28229;48.856;9.088;2023-05-23T02:19:01;97805.59;;;16.23;100.00
42601;BME280;28229;48.856;9.088;2023-05-23T02:21:27;97802.94;;;16.23;100.00
42601;BME280;28229;48.856;9.088;2023-05-23T02:23:53;97811.19;;;16.27;100.00
42601;BME280;28229;48.856;9.088;2023-05-23T02:26:19;97797.63;;;16.23;100.00
42601;BME280;28229;48.856;9.088;2023-05-23T02:28:46;97798.97;;;16.21;100.00
42601;BME280;28229;48.856;9.088;2023-05-23T02:31:14;97808.47;;;16.16;100.00
42601;BME280;28229;48.856;9.088;2023-05-23T02:33:42;97808.75;;;16.20;100.00
42601;BME280;28229;48.856;9.088;2023-05-23T02:36:08;97812.47;;;16.19;100.00
42601;BME280;28229;48.856;9.088;2023-05-23T02:38:34;97807.41;;;16.17;100.00
42601;BME280;28229;48.856;9.088;2023-05-23T02:41:00;97818.00;;;16.12;100.00
42601;BME280;28229;48.856;9.088;2023-05-23T02:43:29;97812.69;;;16.12;100.00
42601;BME280;28229;48.856;9.088;2023-05-23T02:45:55;97815.56;;;16.06;100.00
42601;BME280;28229;48.856;9.088;2023-05-23T02:48:21;97812.91;;;16.06;100.00
42601;BME280;28229;48.856;9.088;2023-05-23T02:50:48;97817.72;;;16.09;100.00
42601;BME280;28229;48.856;9.088;2023-05-23T02:53:14;97815.59;;;16.11;100.00
42601;BME280;28229;48.856;9.088;2023-05-23T02:55:40;97819.88;;;16.12;100.00
42601;BME280;28229;48.856;9.088;2023-05-23T02:58:07;97822.81;;;16.15;100.00
42601;BME280;28229;48.856;9.088;2023-05-23T03:00:35;97814.59;;;16.17;100.00
42601;BME280;28229;48.856;9.088;2023-05-23T03:03:01;97821.44;;;16.13;100.00
42601;BME280;28229;48.856;9.088;2023-05-23T03:05:27;97826.72;;;16.08;100.00
42601;BME280;28229;48.856;9.088;2023-05-23T03:07:53;97826.72;;;16.08;100.00
42601;BME280;28229;48.856;9.088;2023-05-23T03:10:20;97834.13;;;16.06;100.00
42601;BME280;28229;48.856;9.088;2023-05-23T03:12:46;97827.78;;;16.07;100.00
42601;BME280;28229;48.856;9.088;2023-05-23T03:15:14;97825.13;;;16.07;100.00
42601;BME280;28229;48.856;9.088;2023-05-23T03:17:42;97828.59;;;16.07;100.00
42601;BME280;28229;48.856;9.088;2023-05-23T03:20:09;97836.25;;;16.04;100.00
42601;BME280;28229;48.856;9.088;2023-05-23T03:22:38;97836.53;;;16.07;100.00
42601;BME280;28229;48.856;9.088;2023-05-23T03:25:18;97845.56;;;16.06;100.00
42601;BME280;28229;48.856;9.088;2023-05-23T03:27:44;97841.06;;;16.07;100.00
42601;BME280;28229;48.856;9.088;2023-05-23T03:30:11;97841.56;;;16.04;100.00
42601;BME280;28229;48.856;9.088;2023-05-23T03:32:37;97837.88;;;16.05;100.00
42601;BME280;28229;48.856;9.088;2023-05-23T03:35:04;97831.47;;;16.06;100.00
42601;BME280;28229;48.856;9.088;2023-05-23T03:37:31;97844.75;;;16.06;100.00
42601;BME280;28229;48.856;9.088;2023-05-23T03:39:57;97845.28;;;16.03;100.00
42601;BME280;28229;48.856;9.088;2023-05-23T03:42:24;97845.28;;;16.03;100.00
42601;BME280;28229;48.856;9.088;2023-05-23T03:44:50;97842.06;;;16.01;100.00
42601;BME280;28229;48.856;9.088;2023-05-23T03:47:16;97837.56;;;16.01;100.00
42601;BME280;28229;48.856;9.088;2023-05-23T03:49:44;97841.78;;;15.97;100.00
42601;BME280;28229;48.856;9.088;2023-05-23T03:52:11;97841.56;;;16.04;100.00
42601;BME280;28229;48.856;9.088;2023-05-23T03:54:37;97853.50;;;16.01;100.00
42601;BME280;28229;48.856;9.088;2023-05-23T03:57:03;97838.38;;;16.02;100.00
42601;BME280;28229;48.856;9.088;2023-05-23T03:59:30;97846.28;;;15.96;100.00
42601;BME280;28229;48.856;9.088;2023-05-23T04:01:57;97847.59;;;15.94;100.00
42601;BME280;28229;48.856;9.088;2023-05-23T04:04:24;97845.19;;;15.92;100.00
42601;BME280;28229;48.856;9.088;2023-05-23T04:06:51;97854.19;;;15.91;100.00
42601;BME280;28229;48.856;9.088;2023-05-23T04:09:18;97845.44;;;15.91;100.00
42601;BME280;28229;48.856;9.088;2023-05-23T04:11:47;97848.94;;;15.96;100.00
42601;BME280;28229;48.856;9.088;2023-05-23T04:14:14;97848.09;;;15.91;100.00
42601;BME280;28229;48.856;9.088;2023-05-23T04:16:41;97847.59;;;15.94;100.00
42601;BME280;28229;48.856;9.088;2023-05-23T04:19:09;97854.25;;;15.96;100.00
42601;BME280;28229;48.856;9.088;2023-05-23T04:21:37;97853.69;;;15.94;100.00
42601;BME280;28229;48.856;9.088;2023-05-23T04:24:09;97857.41;;;15.93;100.00
42601;BME280;28229;48.856;9.088;2023-05-23T04:26:36;97862.69;;;15.93;100.00
42601;BME280;28229;48.856;9.088;2023-05-23T04:29:03;97863.47;;;15.89;100.00
42601;BME280;28229;48.856;9.088;2023-05-23T04:31:31;97861.41;;;15.96;100.00
42601;BME280;28229;48.856;9.088;2023-05-23T04:33:59;97870.94;;;15.92;100.00
42601;BME280;28229;48.856;9.088;2023-05-23T04:36:25;97858.47;;;15.92;100.00
42601;BME280;28229;48.856;9.088;2023-05-23T04:38:54;97869.31;;;15.91;100.00
42601;BME280;28229;48.856;9.088;2023-05-23T04:41:21;97862.41;;;15.90;100.00
42601;BME280;28229;48.856;9.088;2023-05-23T04:44:04;97866.41;;;15.92;100.00
42601;BME280;28229;48.856;9.088;2023-05-23T04:46:36;97872.53;;;15.93;100.00
42601;BME280;28229;48.856;9.088;2023-05-23T04:49:22;97877.53;;;15.89;100.00
42601;BME280;28229;48.856;9.088;2023-05-23T04:51:48;97879.94;;;15.91;100.00
42601;BME280;28229;48.856;9.088;2023-05-23T04:54:25;97888.97;;;15.95;100.00
42601;BME280;28229;48.856;9.088;2023-05-23T04:56:53;97882.34;;;15.92;100.00
42601;BME280;28229;48.856;9.088;2023-05-23T04:59:20;97882.34;;;15.92;100.00
42601;BME280;28229;48.856;9.088;2023-05-23T05:01:46;97884.44;;;15.90;100.00
42601;BME280;28229;48.856;9.088;2023-05-23T05:04:13;97885.03;;;15.97;100.00
42601;BME280;28229;48.856;9.088;2023-05-23T05:06:40;97893.00;;;15.97;100.00
42601;BME280;28229;48.856;9.088;2023-05-23T05:09:08;97891.94;;;15.98;100.00
42601;BME280;28229;48.856;9.088;2023-05-23T05:11:35;97895.13;;;15.95;100.00
42601;BME280;28229;48.856;9.088;2023-05-23T05:14:02;97890.13;;;16.04;100.00
42601;BME280;28229;48.856;9.088;2023-05-23T05:16:28;97899.97;;;16.09;100.00
42601;BME280;28229;48.856;9.088;2023-05-23T05:18:55;97896.81;;;16.12;100.00
42601;BME280;28229;48.856;9.088;2023-05-23T05:21:22;97886.22;;;16.12;100.00
42601;BME280;28229;48.856;9.088;2023-05-23T05:23:49;97902.72;;;16.19;100.00
42601;BME280;28229;48.856;9.088;2023-05-23T05:26:17;97889.50;;;16.24;100.00
42601;BME280;28229;48.856;9.088;2023-05-23T05:28:43;97892.69;;;16.26;100.00
42601;BME280;28229;48.856;9.088;2023-05-23T05:31:10;97897.50;;;16.29;100.00
42601;BME280;28229;48.856;9.088;2023-05-23T05:33:40;97892.72;;;16.31;100.00
42601;BME280;28229;48.856;9.088;2023-05-23T05:36:12;97900.72;;;16.36;100.00
42601;BME280;28229;48.856;9.088;2023-05-23T05:38:39;97895.94;;;16.39;100.00
42601;BME280;28229;48.856;9.088;2023-05-23T05:41:05;97891.22;;;16.46;100.00
42601;BME280;28229;48.856;9.088;2023-05-23T05:43:35;97894.69;;;16.51;100.00
42601;BME280;28229;48.856;9.088;2023-05-23T05:46:01;97897.69;;;16.60;100.00
42601;BME280;28229;48.856;9.088;2023-05-23T05:48:28;97895.78;;;16.55;100.00
42601;BME280;28229;48.856;9.088;2023-05-23T05:50:57;97901.38;;;16.59;100.00
42601;BME280;28229;48.856;9.088;2023-05-23T05:53:26;97897.94;;;16.59;100.00
42601;BME280;28229;48.856;9.088;2023-05-23T05:55:53;97895.00;;;16.55;100.00
42601;BME280;28229;48.856;9.088;2023-05-23T05:58:20;97903.50;;;16.57;99.74
42601;BME280;28229;48.856;9.088;2023-05-23T06:00:54;97900.28;;;16.55;99.89
42601;BME280;28229;48.856;9.088;2023-05-23T06:03:21;97897.13;;;16.58;100.00
42601;BME280;28229;48.856;9.088;2023-05-23T06:05:52;97904.06;;;16.64;100.00
42601;BME280;28229;48.856;9.088;2023-05-23T06:08:18;97904.63;;;16.71;99.36
42601;BME280;28229;48.856;9.088;2023-05-23T06:10:45;97907.56;;;16.75;98.65
42601;BME280;28229;48.856;9.088;2023-05-23T06:13:11;97911.03;;;16.70;97.72
42601;BME280;28229;48.856;9.088;2023-05-23T06:15:39;97904.13;;;16.74;98.14
42601;BME280;28229;48.856;9.088;2023-05-23T06:18:07;97906.97;;;16.63;98.30
42601;BME280;28229;48.856;9.088;2023-05-23T06:20:34;97904.31;;;16.63;98.33
42601;BME280;28229;48.856;9.088;2023-05-23T06:23:03;97909.31;;;16.54;98.48
42601;BME280;28229;48.856;9.088;2023-05-23T06:25:31;97922.91;;;16.63;97.76
42601;BME280;28229;48.856;9.088;2023-05-23T06:27:57;97918.41;;;16.63;98.29
42601;BME280;28229;48.856;9.088;2023-05-23T06:30:23;97923.44;;;16.60;97.77
42601;BME280;28229;48.856;9.088;2023-05-23T06:32:51;97924.78;;;16.62;96.89
42601;BME280;28229;48.856;9.088;2023-05-23T06:35:17;97931.13;;;16.56;97.20
42601;BME280;28229;48.856;9.088;2023-05-23T06:37:44;97935.38;;;16.57;97.73
42601;BME280;28229;48.856;9.088;2023-05-23T06:40:11;97943.53;;;16.50;97.76
42601;BME280;28229;48.856;9.088;2023-05-23T06:42:40;97948.31;;;16.48;97.70
42601;BME280;28229;48.856;9.088;2023-05-23T06:45:22;97941.09;;;16.39;97.84
42601;BME280;28229;48.856;9.088;2023-05-23T06:47:49;97949.09;;;16.44;98.71
42601;BME280;28229;48.856;9.088;2023-05-23T06:50:16;97949.09;;;16.44;97.85
42601;BME280;28229;48.856;9.088;2023-05-23T06:52:45;97958.06;;;16.37;97.05
42601;BME280;28229;48.856;9.088;2023-05-23T06:55:12;97954.38;;;16.39;96.48
42601;BME280;28229;48.856;9.088;2023-05-23T06:57:43;97961.78;;;16.36;96.41
42601;BME280;28229;48.856;9.088;2023-05-23T07:00:10;97960.19;;;16.35;95.54
42601;BME280;28229;48.856;9.088;2023-05-23T07:02:46;97963.56;;;16.31;94.50
42601;BME280;28229;48.856;9.088;2023-05-23T07:05:18;97972.38;;;16.31;93.63
42601;BME280;28229;48.856;9.088;2023-05-23T07:07:47;97974.72;;;16.28;93.25
42601;BME280;28229;48.856;9.088;2023-05-23T07:10:14;97982.34;;;16.19;91.79
42601;BME280;28229;48.856;9.088;2023-05-23T07:12:41;97984.94;;;16.14;92.15
42601;BME280;28229;48.856;9.088;2023-05-23T07:15:10;97985.44;;;16.11;91.87
42601;BME280;28229;48.856;9.088;2023-05-23T07:17:43;97985.53;;;16.21;90.58
42601;BME280;28229;48.856;9.088;2023-05-23T07:20:12;97990.56;;;16.17;90.85
42601;BME280;28229;48.856;9.088;2023-05-23T07:22:40;97993.16;;;16.12;92.40
42601;BME280;28229;48.856;9.088;2023-05-23T07:25:06;97995.75;;;16.07;94.36
42601;BME280;28229;48.856;9.088;2023-05-23T07:27:34;97992.84;;;16.09;94.56
42601;BME280;28229;48.856;9.088;2023-05-23T07:30:00;97989.66;;;16.07;94.13
42601;BME280;28229;48.856;9.088;2023-05-23T07:32:27;97989.16;;;16.10;93.45
42601;BME280;28229;48.856;9.088;2023-05-23T07:34:54;97991.88;;;16.15;92.08
42601;BME280;28229;48.856;9.088;2023-05-23T07:37:20;97995.06;;;16.17;92.53
42601;BME280;28229;48.856;9.088;2023-05-23T07:39:47;97994.03;;;16.23;91.56
42601;BME280;28229;48.856;9.088;2023-05-23T07:42:13;97986.44;;;16.32;88.87
42601;BME280;28229;48.856;9.088;2023-05-23T07:44:40;97990.78;;;16.48;87.37
42601;BME280;28229;48.856;9.088;2023-05-23T07:47:06;97994.34;;;16.59;85.32
42601;BME280;28229;48.856;9.088;2023-05-23T07:49:33;97999.59;;;16.54;83.79
42601;BME280;28229;48.856;9.088;2023-05-23T07:52:00;98000.91;;;16.51;83.02
42601;BME280;28229;48.856;9.088;2023-05-23T07:54:27;98002.53;;;16.52;83.34
42601;BME280;28229;48.856;9.088;2023-05-23T07:56:57;98005.00;;;16.64;83.73
42601;BME280;28229;48.856;9.088;2023-05-23T07:59:24;98011.34;;;16.58;83.01
42601;BME280;28229;48.856;9.088;2023-05-23T08:01:51;98009.72;;;16.57;82.88
42601;BME280;28229;48.856;9.088;2023-05-23T08:04:19;98012.88;;;16.49;83.31
42601;BME280;28229;48.856;9.088;2023-05-23T08:06:50;98014.94;;;16.47;83.64
42601;BME280;28229;48.856;9.088;2023-05-23T08:09:17;98020.44;;;16.35;83.28
42601;BME280;28229;48.856;9.088;2023-05-23T08:11:49;98016.38;;;16.27;83.88
42601;BME280;28229;48.856;9.088;2023-05-23T08:14:18;98021.38;;;16.18;82.85
42601;BME280;28229;48.856;9.088;2023-05-23T08:17:11;98031.09;;;16.13;82.78
42601;BME280;28229;48.856;9.088;2023-05-23T08:19:37;98023.09;;;16.08;82.40
42601;BME280;28229;48.856;9.088;2023-05-23T08:22:03;98037.25;;;15.91;82.92
42601;BME280;28229;48.856;9.088;2023-05-23T08:24:30;98032.09;;;15.79;83.78
42601;BME280;28229;48.856;9.088;2023-05-23T08:26:56;98029.22;;;15.81;83.99
42601;BME280;28229;48.856;9.088;2023-05-23T08:29:23;98031.19;;;15.74;83.49
42601;BME280;28229;48.856;9.088;2023-05-23T08:31:52;98030.19;;;15.75;83.69
42601;BME280;28229;48.856;9.088;2023-05-23T08:34:18;98037.09;;;15.76;84.55
42601;BME280;28229;48.856;9.088;2023-05-23T08:36:44;98035.00;;;15.78;84.46
42601;BME280;28229;48.856;9.088;2023-05-23T08:39:15;98044.00;;;15.77;84.24
42601;BME280;28229;48.856;9.088;2023-05-23T08:41:51;98042.50;;;15.86;84.26
42601;BME280;28229;48.856;9.088;2023-05-23T08:44:17;98035.13;;;15.88;83.93
42601;BME280;28229;48.856;9.088;2023-05-23T08:46:52;98047.38;;;15.94;83.16
42601;BME280;28229;48.856;9.088;2023-05-23T08:49:34;98048.38;;;15.88;83.82
42601;BME280;28229;48.856;9.088;2023-05-23T08:52:01;98051.53;;;15.85;83.90
42601;BME280;28229;48.856;9.088;2023-05-23T08:54:34;98049.75;;;15.74;83.94
42601;BME280;28229;48.856;9.088;2023-05-23T08:57:00;98050.38;;;15.76;84.63
42601;BME280;28229;48.856;9.088;2023-05-23T08:59:28;98061.53;;;15.78;84.54
42601;BME280;28229;48.856;9.088;2023-05-23T09:01:55;98053.03;;;15.76;83.47
42601;BME280;28229;48.856;9.088;2023-05-23T09:04:22;98058.78;;;15.73;83.74
42601;BME280;28229;48.856;9.088;2023-05-23T09:06:55;98063.69;;;15.81;83.57
42601;BME280;28229;48.856;9.088;2023-05-23T09:09:22;98071.69;;;15.86;83.07
42601;BME280;28229;48.856;9.088;2023-05-23T09:11:54;98068.13;;;15.97;83.01
42601;BME280;28229;48.856;9.088;2023-05-23T09:14:21;98071.88;;;16.02;81.50
42601;BME280;28229;48.856;9.088;2023-05-23T09:16:49;98069.69;;;15.98;80.60
42601;BME280;28229;48.856;9.088;2023-05-23T09:19:17;98073.47;;;16.03;79.87
42601;BME280;28229;48.856;9.088;2023-05-23T09:21:53;98074.56;;;16.07;79.81
42601;BME280;28229;48.856;9.088;2023-05-23T09:24:33;98069.75;;;16.04;78.75
42601;BME280;28229;48.856;9.088;2023-05-23T09:27:00;98071.38;;;16.05;79.00
42601;BME280;28229;48.856;9.088;2023-05-23T09:29:27;98070.19;;;16.17;78.33
42601;BME280;28229;48.856;9.088;2023-05-23T09:31:59;98068.47;;;16.33;78.10
42601;BME280;28229;48.856;9.088;2023-05-23T09:34:39;98075.81;;;16.53;78.19
42601;BME280;28229;48.856;9.088;2023-05-23T09:37:06;98075.47;;;16.72;76.91
42601;BME280;28229;48.856;9.088;2023-05-23T09:39:36;98073.94;;;16.81;75.28
42601;BME280;28229;48.856;9.088;2023-05-23T09:42:03;98069.25;;;16.88;75.23
42601;BME280;28229;48.856;9.088;2023-05-23T09:44:29;98071.66;;;16.90;74.49
42601;BME280;28229;48.856;9.088;2023-05-23T09:46:56;98071.66;;;16.95;72.11
42601;BME280;28229;48.856;9.088;2023-05-23T09:49:22;98075.44;;;16.99;72.50
42601;BME280;28229;48.856;9.088;2023-05-23T09:51:59;98070.69;;;17.06;72.18
42601;BME280;28229;48.856;9.088;2023-05-23T09:54:26;98073.38;;;17.11;71.90
42601;BME280;28229;48.856;9.088;2023-05-23T09:56:53;98072.63;;;17.21;72.18
42601;BME280;28229;48.856;9.088;2023-05-23T09:59:21;98062.84;;;17.32;70.55
42601;BME280;28229;48.856;9.088;2023-05-23T10:01:50;98075.59;;;17.25;68.63
42601;BME280;28229;48.856;9.088;2023-05-23T10:04:20;98068.75;;;17.39;69.85
42601;BME280;28229;48.856;9.088;2023-05-23T10:06:50;98073.91;;;17.56;70.46
42601;BME280;28229;48.856;9.088;2023-05-23T10:09:20;98068.38;;;17.73;67.44
42601;BME280;28229;48.856;9.088;2023-05-23T10:12:35;98066.09;;;17.92;65.48
42601;BME280;28229;48.856;9.088;2023-05-23T10:15:06;98068.53;;;18.19;65.80
42601;BME280;28229;48.856;9.088;2023-05-23T10:17:55;98072.03;;;18.40;66.10
42601;BME280;28229;48.856;9.088;2023-05-23T10:20:25;98069.63;;;18.39;65.87
42601;BME280;28229;48.856;9.088;2023-05-23T10:22:53;98068.06;;;18.38;67.10
42601;BME280;28229;48.856;9.088;2023-05-23T10:25:20;98075.75;;;18.39;67.95
42601;BME280;28229;48.856;9.088;2023-05-23T10:27:47;98072.03;;;18.40;66.19
42601;BME280;28229;48.856;9.088;2023-05-23T10:30:14;98081.09;;;18.34;66.13
42601;BME280;28229;48.856;9.088;2023-05-23T10:32:41;98085.09;;;18.47;66.37
42601;BME280;28229;48.856;9.088;2023-05-23T10:35:20;98084.03;;;18.58;66.21
42601;BME280;28229;48.856;9.088;2023-05-23T10:38:08;98086.72;;;18.74;66.38
42601;BME280;28229;48.856;9.088;2023-05-23T10:41:08;98073.66;;;18.72;63.32
42601;BME280;28229;48.856;9.088;2023-05-23T10:44:15;98079.25;;;18.76;62.59
42601;BME280;28229;48.856;9.088;2023-05-23T10:49:19;98074.97;;;19.11;60.76
42601;BME280;28229;48.856;9.088;2023-05-23T10:51:50;98079.19;;;19.43;60.54
42601;BME280;28229;48.856;9.088;2023-05-23T10:54:17;98080.16;;;19.83;59.51
42601;BME280;28229;48.856;9.088;2023-05-23T10:56:45;98073.81;;;20.23;57.75
42601;BME280;28229;48.856;9.088;2023-05-23T10:59:20;98082.94;;;20.51;55.85
42601;BME280;28229;48.856;9.088;2023-05-23T11:01:50;98078.69;;;20.50;55.22
42601;BME280;28229;48.856;9.088;2023-05-23T11:04:27;98082.41;;;20.54;54.90
42601;BME280;28229;48.856;9.088;2023-05-23T11:06:54;98083.28;;;20.45;54.88
42601;BME280;28229;48.856;9.088;2023-05-23T11:09:22;98091.13;;;20.31;55.78
42601;BME280;28229;48.856;9.088;2023-05-23T11:12:04;98083.16;;;20.21;57.16
42601;BME280;28229;48.856;9.088;2023-05-23T11:17:31;98093.75;;;19.91;58.14
42601;BME280;28229;48.856;9.088;2023-05-23T11:20:02;98092.72;;;19.67;58.53
42601;BME280;28229;48.856;9.088;2023-05-23T11:22:31;98094.13;;;19.44;58.89
42601;BME280;28229;48.856;9.088;2023-05-23T11:24:58;98094.69;;;19.30;60.50
42601;BME280;28229;48.856;9.088;2023-05-23T11:27:35;98101.38;;;19.28;59.69
42601;BME280;28229;48.856;9.088;2023-05-23T11:30:10;98101.88;;;19.35;60.63
42601;BME280;28229;48.856;9.088;2023-05-23T11:32:41;98092.53;;;19.43;60.13
42601;BME280;28229;48.856;9.088;2023-05-23T11:35:08;98095.94;;;19.58;58.70
42601;BME280;28229;48.856;9.088;2023-05-23T11:37:37;98091.44;;;19.59;57.63
42601;BME280;28229;48.856;9.088;2023-05-23T11:40:26;98091.94;;;19.66;58.19
42601;BME280;28229;48.856;9.088;2023-05-23T11:42:53;98097.25;;;19.76;57.44
42601;BME280;28229;48.856;9.088;2023-05-23T11:45:24;98087.09;;;19.78;57.82
42601;BME280;28229;48.856;9.088;2023-05-23T11:47:52;98083.31;;;19.95;57.62
42601;BME280;28229;48.856;9.088;2023-05-23T11:50:18;98084.09;;;19.95;56.82
42601;BME280;28229;48.856;9.088;2023-05-23T11:52:49;98091.28;;;20.00;56.62
42601;BME280;28229;48.856;9.088;2023-05-23T11:55:19;98087.78;;;20.05;56.40
42601;BME280;28229;48.856;9.088;2023-05-23T11:57:46;98079.53;;;19.96;55.93
42601;BME280;28229;48.856;9.088;2023-05-23T12:00:13;98079.41;;;20.27;55.76
42601;BME280;28229;48.856;9.088;2023-05-23T12:02:41;98081.94;;;20.82;55.16
42601;BME280;28229;48.856;9.088;2023-05-23T12:05:11;98079.59;;;21.34;53.07
42601;BME280;28229;48.856;9.088;2023-05-23T12:07:46;98088.06;;;21.46;51.75
42601;BME280;28229;48.856;9.088;2023-05-23T12:10:16;98075.84;;;21.35;51.49
42601;BME280;28229;48.856;9.088;2023-05-23T12:12:43;98070.44;;;21.40;51.73
42601;BME280;28229;48.856;9.088;2023-05-23T12:15:10;98078.66;;;21.19;51.44
42601;BME280;28229;48.856;9.088;2023-05-23T12:17:38;98079.09;;;21.02;52.19
42601;BME280;28229;48.856;9.088;2023-05-23T12:20:05;98082.63;;;20.98;54.34
42601;BME280;28229;48.856;9.088;2023-05-23T12:22:32;98072.75;;;20.64;54.36
42601;BME280;28229;48.856;9.088;2023-05-23T12:24:58;98075.41;;;20.59;55.12
42601;BME280;28229;48.856;9.088;2023-05-23T12:27:29;98067.47;;;20.53;54.13
42601;BME280;28229;48.856;9.088;2023-05-23T12:32:40;98067.94;;;20.61;54.85
42601;BME280;28229;48.856;9.088;2023-05-23T12:35:14;98063.47;;;20.85;54.67
42601;BME280;28229;48.856;9.088;2023-05-23T12:37:43;98069.56;;;21.20;53.93
42601;BME280;28229;48.856;9.088;2023-05-23T12:40:15;98061.97;;;21.33;53.62
42601;BME280;28229;48.856;9.088;2023-05-23T12:42:51;98058.56;;;21.75;51.61
42601;BME280;28229;48.856;9.088;2023-05-23T12:45:31;98066.06;;;21.73;51.12
42601;BME280;28229;48.856;9.088;2023-05-23T12:47:59;98049.78;;;21.70;50.53
42601;BME280;28229;48.856;9.088;2023-05-23T12:50:25;98049.84;;;21.64;50.70
42601;BME280;28229;48.856;9.088;2023-05-23T12:52:52;98047.94;;;21.89;51.93
42601;BME280;28229;48.856;9.088;2023-05-23T12:55:18;98036.69;;;21.68;51.74
42601;BME280;28229;48.856;9.088;2023-05-23T12:57:44;98047.19;;;22.02;51.20
42601;BME280;28229;48.856;9.088;2023-05-23T13:00:11;98045.53;;;22.25;49.47
42601;BME280;28229;48.856;9.088;2023-05-23T13:02:37;98038.66;;;22.38;49.49
42601;BME280;28229;48.856;9.088;2023-05-23T13:05:05;98048.88;;;22.55;48.38
42601;BME280;28229;48.856;9.088;2023-05-23T13:07:32;98042.88;;;22.45;48.18
42601;BME280;28229;48.856;9.088;2023-05-23T13:09:58;98039.09;;;22.08;49.61
42601;BME280;28229;48.856;9.088;2023-05-23T13:12:24;98042.50;;;21.51;51.65
42601;BME280;28229;48.856;9.088;2023-05-23T13:14:50;98046.56;;;21.19;52.22
42601;BME280;28229;48.856;9.088;2023-05-23T13:17:17;98044.97;;;21.18;52.50
42601;BME280;28229;48.856;9.088;2023-05-23T13:19:43;98052.88;;;21.04;52.90